createdAt,value
2018-12-05T00:01:14.139Z,8.93
2018-12-05T00:03:43.111Z,9.70
2018-12-05T00:06:12.020Z,9.33
2018-12-05T00:08:40.956Z,9.03
2018-12-05T00:11:09.829Z,8.80
2018-12-05T00:13:38.773Z,8.80
2018-12-05T00:16:07.777Z,10.13
2018-12-05T00:18:36.836Z,9.53
2018-12-05T00:21:05.858Z,8.47
2018-12-05T00:23:34.881Z,9.67
2018-12-05T00:26:04.840Z,9.50
2018-12-05T00:28:33.783Z,8.50
2018-12-05T00:31:02.672Z,9.27
2018-12-05T00:33:31.574Z,9.13
2018-12-05T00:36:00.638Z,10.27
2018-12-05T00:38:29.607Z,9.03
2018-12-05T00:40:58.545Z,9.43
2018-12-05T00:43:27.399Z,9.30
2018-12-05T00:45:56.333Z,9.10
2018-12-05T00:48:25.230Z,9.67
2018-12-05T00:50:54.275Z,9.47
2018-12-05T00:53:23.292Z,9.60
2018-12-05T00:55:52.215Z,9.37
2018-12-05T00:58:21.193Z,9.77
2018-12-05T01:00:50.041Z,9.93
2018-12-05T01:03:18.987Z,9.23
2018-12-05T01:05:47.902Z,9.83
2018-12-05T01:08:16.829Z,9.47
2018-12-05T01:10:45.782Z,9.47
2018-12-05T01:13:14.808Z,9.50
2018-12-05T01:15:43.684Z,9.17
2018-12-05T01:18:12.616Z,9.07
2018-12-05T01:20:41.899Z,9.63
2018-12-05T01:23:11.752Z,9.23
2018-12-05T01:25:40.757Z,9.23
2018-12-05T01:28:09.727Z,9.10
2018-12-05T01:30:38.572Z,9.03
2018-12-05T01:33:07.466Z,8.40
2018-12-05T01:35:36.457Z,8.67
2018-12-05T01:38:05.313Z,8.87
2018-12-05T01:40:34.213Z,8.57
2018-12-05T01:43:03.090Z,9.07
2018-12-05T01:45:32.018Z,8.87
2018-12-05T01:48:01.055Z,9.37
2018-12-05T01:50:30.053Z,9.47
2018-12-05T01:52:58.938Z,9.20
2018-12-05T01:55:29.936Z,8.53
2018-12-05T01:57:58.790Z,9.17
2018-12-05T02:00:27.737Z,8.87
2018-12-05T02:02:56.604Z,8.57
2018-12-05T02:05:25.521Z,8.10
2018-12-05T02:07:54.417Z,8.57
2018-12-05T02:10:23.279Z,9.33
2018-12-05T02:12:52.188Z,9.87
2018-12-05T02:15:21.068Z,11.23
2018-12-05T02:17:50.009Z,11.13
2018-12-05T02:20:18.939Z,11.40
2018-12-05T02:22:47.924Z,11.43
2018-12-05T02:25:16.801Z,10.90
2018-12-05T02:27:45.777Z,11.40
2018-12-05T02:30:14.655Z,9.97
2018-12-05T02:32:43.718Z,9.83
2018-12-05T02:35:12.712Z,10.50
2018-12-05T02:37:41.705Z,10.03
2018-12-05T02:40:10.619Z,9.13
2018-12-05T02:42:39.692Z,9.10
2018-12-05T02:45:08.624Z,8.20
2018-12-05T02:47:37.536Z,8.73
2018-12-05T02:50:06.492Z,8.13
2018-12-05T02:52:35.449Z,8.63
2018-12-05T02:55:04.473Z,8.03
2018-12-05T02:57:33.582Z,8.77
2018-12-05T03:00:02.683Z,8.50
2018-12-05T03:02:31.590Z,8.37
2018-12-05T03:05:00.419Z,9.97
2018-12-05T03:07:29.495Z,9.57
2018-12-05T03:09:58.304Z,9.90
2018-12-05T03:12:27.250Z,9.50
2018-12-05T03:14:56.088Z,9.50
2018-12-05T03:17:25.948Z,8.30
2018-12-05T03:19:55.035Z,9.30
2018-12-05T03:22:23.976Z,9.83
2018-12-05T03:24:52.900Z,9.53
2018-12-05T03:27:21.796Z,9.17
2018-12-05T03:29:50.717Z,10.20
2018-12-05T03:32:21.694Z,10.47
2018-12-05T03:34:50.624Z,11.07
2018-12-05T03:37:19.592Z,11.63
2018-12-05T03:39:48.604Z,12.43
2018-12-05T03:42:17.560Z,12.27
2018-12-05T03:44:46.444Z,12.97
2018-12-05T03:47:15.357Z,13.60
2018-12-05T03:49:49.701Z,13.23
2018-12-05T03:52:18.619Z,12.93
2018-12-05T03:54:47.569Z,14.10
2018-12-05T03:57:16.440Z,13.80
2018-12-05T03:59:45.492Z,12.60
2018-12-05T04:02:14.399Z,11.67
2018-12-05T04:04:43.299Z,10.30
2018-12-05T04:07:12.227Z,11.33
2018-12-05T04:09:41.081Z,10.43
2018-12-05T04:12:10.011Z,10.10
2018-12-05T04:14:38.900Z,9.03
2018-12-05T04:17:07.872Z,7.97
2018-12-05T04:19:36.784Z,7.37
2018-12-05T04:22:05.683Z,9.07
2018-12-05T04:24:34.569Z,7.97
2018-12-05T04:27:04.114Z,8.03
2018-12-05T04:29:33.064Z,6.73
2018-12-05T04:32:02.009Z,7.13
2018-12-05T04:34:30.908Z,7.17
2018-12-05T04:36:59.815Z,6.50
2018-12-05T04:39:28.700Z,6.07
2018-12-05T04:41:57.719Z,6.57
2018-12-05T04:44:26.652Z,6.20
2018-12-05T04:46:55.523Z,6.37
2018-12-05T04:49:24.410Z,6.63
2018-12-05T04:51:53.562Z,6.33
2018-12-05T04:54:22.451Z,6.27
2018-12-05T04:56:51.392Z,5.97
2018-12-05T04:59:20.285Z,6.47
2018-12-05T05:01:49.160Z,6.17
2018-12-05T05:04:18.084Z,6.87
2018-12-05T05:06:46.955Z,6.50
2018-12-05T05:09:15.954Z,6.80
2018-12-05T05:11:44.832Z,6.23
2018-12-05T05:14:13.744Z,6.07
2018-12-05T05:16:42.624Z,6.20
2018-12-05T05:19:11.624Z,6.03
2018-12-05T05:21:40.643Z,6.70
2018-12-05T05:24:09.492Z,5.67
2018-12-05T05:26:38.467Z,6.10
2018-12-05T05:29:07.622Z,6.77
2018-12-05T05:31:36.593Z,6.23
2018-12-05T05:34:05.524Z,6.60
2018-12-05T05:36:34.704Z,6.07
2018-12-05T05:39:05.915Z,6.70
2018-12-05T05:41:34.855Z,6.53
2018-12-05T05:44:03.773Z,6.47
2018-12-05T05:46:32.663Z,7.03
2018-12-05T05:49:01.552Z,6.43
2018-12-05T05:51:30.470Z,6.40
2018-12-05T05:53:59.363Z,5.70
2018-12-05T05:56:28.438Z,6.20
2018-12-05T05:58:57.300Z,6.80
2018-12-05T06:01:26.292Z,6.43
2018-12-05T06:03:55.163Z,6.83
2018-12-05T06:06:24.131Z,6.53
2018-12-05T06:08:52.974Z,6.63
2018-12-05T06:11:21.847Z,6.70
2018-12-05T06:13:50.752Z,6.07
2018-12-05T06:16:19.730Z,6.37
2018-12-05T06:18:48.762Z,7.00
2018-12-05T06:21:17.810Z,7.00
2018-12-05T06:23:46.744Z,6.13
2018-12-05T06:26:15.767Z,6.83
2018-12-05T06:28:44.922Z,7.20
2018-12-05T06:31:13.981Z,6.60
2018-12-05T06:33:42.859Z,6.27
2018-12-05T06:36:11.777Z,5.57
2018-12-05T06:38:40.666Z,6.13
2018-12-05T06:41:09.535Z,5.97
2018-12-05T06:43:38.424Z,6.57
2018-12-05T06:46:07.295Z,6.17
2018-12-05T06:48:36.181Z,5.93
2018-12-05T06:51:05.149Z,6.07
2018-12-05T06:53:35.608Z,5.83
2018-12-05T06:56:04.836Z,6.37
2018-12-05T06:58:33.830Z,5.67
2018-12-05T07:01:02.817Z,5.40
2018-12-05T07:03:31.712Z,5.77
2018-12-05T07:06:00.740Z,6.33
2018-12-05T07:08:29.585Z,6.43
2018-12-05T07:10:58.517Z,5.87
2018-12-05T07:13:27.449Z,5.87
2018-12-05T07:15:56.333Z,5.60
2018-12-05T07:18:25.316Z,5.37
2018-12-05T07:20:54.203Z,5.37
2018-12-05T07:23:23.210Z,6.20
2018-12-05T07:25:58.688Z,5.30
2018-12-05T07:28:27.653Z,5.63
2018-12-05T07:30:56.697Z,8.73
2018-12-05T07:33:25.576Z,18.70
2018-12-05T07:35:54.496Z,17.37
2018-12-05T07:38:23.537Z,10.37
2018-12-05T07:40:52.463Z,6.83
2018-12-05T07:43:21.392Z,8.93
2018-12-05T07:45:50.503Z,16.37
2018-12-05T07:48:19.436Z,9.60
2018-12-05T07:50:48.404Z,8.43
2018-12-05T07:53:17.378Z,12.20
2018-12-05T07:55:46.384Z,10.40
2018-12-05T07:58:16.414Z,17.13
2018-12-05T08:00:45.496Z,12.43
2018-12-05T08:03:14.404Z,14.17
2018-12-05T08:05:43.522Z,11.40
2018-12-05T08:08:12.456Z,7.87
2018-12-05T08:10:41.975Z,13.33
2018-12-05T08:13:11.052Z,7.33
2018-12-05T08:15:40.523Z,22.17
2018-12-05T08:18:09.693Z,25.97
2018-12-05T08:20:38.569Z,14.50
2018-12-05T08:23:07.577Z,36.53
2018-12-05T08:25:36.473Z,17.10
2018-12-05T08:28:05.358Z,13.07
2018-12-05T08:30:34.416Z,12.13
2018-12-05T08:33:03.284Z,19.43
2018-12-05T08:35:32.243Z,24.57
2018-12-05T08:38:01.178Z,23.03
2018-12-05T08:40:30.111Z,15.63
2018-12-05T08:42:59.083Z,7.37
2018-12-05T08:45:28.136Z,24.30
2018-12-05T08:47:57.114Z,16.97
2018-12-05T08:50:26.227Z,18.93
2018-12-05T08:52:55.189Z,9.03
2018-12-05T08:55:24.216Z,7.87
2018-12-05T08:57:53.119Z,8.97
2018-12-05T09:00:22.166Z,7.57
2018-12-05T09:02:51.255Z,7.43
2018-12-05T09:05:20.088Z,7.63
2018-12-05T09:07:49.110Z,8.17
2018-12-05T09:10:18.020Z,8.03
2018-12-05T09:12:48.871Z,7.60
2018-12-05T09:15:17.847Z,7.73
2018-12-05T09:17:46.737Z,8.07
2018-12-05T09:20:15.619Z,8.03
2018-12-05T09:22:44.533Z,8.20
2018-12-05T09:25:13.676Z,7.73
2018-12-05T09:27:42.648Z,8.57
2018-12-05T09:30:11.527Z,7.77
2018-12-05T09:32:40.509Z,7.63
2018-12-05T09:35:09.484Z,8.27
2018-12-05T09:37:38.423Z,7.77
2018-12-05T09:40:07.860Z,8.50
2018-12-05T09:42:36.780Z,8.57
2018-12-05T09:45:09.101Z,8.30
2018-12-05T09:47:38.042Z,8.17
2018-12-05T09:50:06.995Z,8.63
2018-12-05T09:52:35.912Z,8.50
2018-12-05T09:55:04.996Z,7.90
2018-12-05T09:57:34.848Z,8.40
2018-12-05T10:00:03.825Z,8.57
2018-12-05T10:02:32.869Z,7.77
2018-12-05T10:05:01.828Z,8.40
2018-12-05T10:07:30.717Z,8.50
2018-12-05T10:10:01.397Z,8.90
2018-12-05T10:12:30.377Z,8.23
2018-12-05T10:14:59.361Z,8.03
2018-12-05T10:17:28.300Z,8.47
2018-12-05T10:19:57.242Z,8.13
2018-12-05T10:22:26.118Z,8.03
2018-12-05T10:24:55.104Z,8.30
2018-12-05T10:27:24.555Z,7.83
2018-12-05T10:29:53.643Z,8.37
2018-12-05T10:32:22.641Z,8.83
2018-12-05T10:34:51.508Z,8.33
2018-12-05T10:37:20.417Z,8.47
2018-12-05T10:39:50.392Z,8.57
2018-12-05T10:42:19.324Z,7.90
2018-12-05T10:44:48.268Z,8.03
2018-12-05T10:47:17.256Z,9.10
2018-12-05T10:49:46.108Z,8.97
2018-12-05T10:52:14.963Z,8.47
2018-12-05T10:54:44.048Z,8.37
2018-12-05T10:57:13.117Z,8.77
2018-12-05T10:59:42.217Z,8.70
2018-12-05T11:02:17.491Z,8.60
2018-12-05T11:04:51.920Z,8.20
2018-12-05T11:08:28.109Z,8.93
2018-12-05T11:11:02.320Z,8.20
2018-12-05T11:13:37.635Z,8.37
2018-12-05T11:16:13.682Z,8.33
2018-12-05T11:18:47.915Z,9.00
2018-12-05T11:21:22.243Z,8.67
2018-12-05T11:23:57.748Z,9.03
2018-12-05T11:26:30.163Z,9.27
2018-12-05T11:28:59.136Z,8.90
2018-12-05T11:31:28.259Z,8.20
2018-12-05T11:33:57.159Z,8.73
2018-12-05T11:36:26.097Z,8.80
2018-12-05T11:38:55.115Z,9.03
2018-12-05T11:41:24.100Z,8.90
2018-12-05T11:43:52.957Z,9.00
2018-12-05T11:46:21.845Z,8.77
2018-12-05T11:48:50.744Z,7.90
2018-12-05T11:51:19.699Z,9.20
2018-12-05T11:53:48.555Z,8.50
2018-12-05T11:56:17.564Z,8.77
2018-12-05T11:58:46.544Z,8.87
2018-12-05T12:01:15.445Z,9.37
2018-12-05T12:03:44.435Z,8.93
2018-12-05T12:06:15.640Z,9.20
2018-12-05T12:08:45.657Z,8.27
2018-12-05T12:11:14.632Z,9.43
2018-12-05T12:13:43.518Z,9.60
2018-12-05T12:16:12.428Z,8.57
2018-12-05T12:18:41.474Z,8.80
2018-12-05T12:21:10.558Z,8.70
2018-12-05T12:23:39.464Z,9.10
2018-12-05T12:26:08.425Z,9.47
2018-12-05T12:28:37.576Z,8.43
2018-12-05T12:31:08.252Z,8.83
2018-12-05T12:33:37.218Z,9.07
2018-12-05T12:36:06.145Z,9.10
2018-12-05T12:38:35.027Z,9.70
2018-12-05T12:41:03.999Z,10.03
2018-12-05T12:43:32.895Z,9.53
2018-12-05T12:46:01.742Z,9.57
2018-12-05T12:48:31.723Z,9.07
2018-12-05T12:51:00.639Z,9.20
2018-12-05T12:53:30.453Z,8.57
2018-12-05T12:55:59.489Z,9.23
2018-12-05T12:58:28.518Z,9.63
2018-12-05T13:00:57.600Z,9.93
2018-12-05T13:03:26.544Z,9.57
2018-12-05T13:05:55.636Z,10.07
2018-12-05T13:08:24.589Z,9.57
2018-12-05T13:11:00.035Z,10.30
2018-12-05T13:13:29.046Z,10.03
2018-12-05T13:15:57.954Z,10.17
2018-12-05T13:18:26.865Z,9.80
2018-12-05T13:20:55.901Z,10.30
2018-12-05T13:23:24.780Z,10.23
2018-12-05T13:25:53.717Z,10.37
2018-12-05T13:28:22.704Z,9.60
2018-12-05T13:30:51.570Z,9.93
2018-12-05T13:33:20.489Z,9.30
2018-12-05T13:35:49.429Z,9.50
2018-12-05T13:38:18.560Z,10.23
2018-12-05T13:40:47.527Z,9.97
2018-12-05T13:43:16.765Z,10.60
2018-12-05T13:45:45.720Z,11.10
2018-12-05T13:48:14.811Z,10.40
2018-12-05T13:50:43.786Z,10.27
2018-12-05T13:53:12.724Z,9.77
2018-12-05T13:55:41.679Z,10.23
2018-12-05T13:58:11.117Z,10.07
2018-12-05T14:00:40.770Z,10.90
2018-12-05T14:03:09.732Z,11.00
2018-12-05T14:05:38.675Z,11.10
2018-12-05T14:08:07.621Z,10.67
2018-12-05T14:10:37.550Z,11.57
2018-12-05T14:13:12.819Z,10.73
2018-12-05T14:15:41.740Z,11.83
2018-12-05T14:18:10.673Z,11.13
2018-12-05T14:20:39.761Z,11.83
2018-12-05T14:23:08.719Z,11.40
2018-12-05T14:25:37.666Z,11.07
2018-12-05T14:28:06.575Z,10.20
2018-12-05T14:30:35.511Z,10.37
2018-12-05T14:33:04.512Z,10.57
2018-12-05T14:35:33.409Z,9.80
2018-12-05T14:38:02.362Z,10.67
2018-12-05T14:40:31.250Z,10.73
2018-12-05T14:43:01.205Z,10.67
2018-12-05T14:45:30.128Z,10.67
2018-12-05T14:47:59.140Z,11.13
2018-12-05T14:50:28.245Z,10.43
2018-12-05T14:52:57.168Z,10.17
2018-12-05T14:55:26.120Z,10.63
2018-12-05T14:57:55.171Z,10.97
2018-12-05T15:00:24.104Z,11.33
2018-12-05T15:02:52.983Z,11.07
2018-12-05T15:05:21.896Z,11.20
2018-12-05T15:07:50.808Z,11.53
2018-12-05T15:10:19.632Z,11.30
2018-12-05T15:12:50.619Z,11.47
2018-12-05T15:15:19.604Z,10.77
2018-12-05T15:17:48.579Z,11.20
2018-12-05T15:20:17.525Z,12.20
2018-12-05T15:22:46.700Z,12.00
2018-12-05T15:25:15.725Z,11.73
2018-12-05T15:27:44.738Z,12.27
2018-12-05T15:30:13.692Z,12.23
2018-12-05T15:32:42.969Z,11.30
2018-12-05T15:35:11.864Z,12.03
2018-12-05T15:37:40.784Z,11.53
2018-12-05T15:40:09.939Z,11.37
2018-12-05T15:42:39.066Z,12.07
2018-12-05T15:45:08.118Z,12.13
2018-12-05T15:47:37.111Z,13.13
2018-12-05T15:50:07.166Z,12.77
2018-12-05T15:52:36.273Z,11.80
2018-12-05T15:55:05.241Z,13.43
2018-12-05T15:57:34.145Z,12.00
2018-12-05T16:00:04.220Z,12.53
2018-12-05T16:02:33.234Z,11.90
2018-12-05T16:05:02.099Z,12.97
2018-12-05T16:07:32.154Z,12.90
2018-12-05T16:10:02.328Z,11.90
2018-12-05T16:12:31.336Z,12.37
2018-12-05T16:15:00.328Z,12.80
2018-12-05T16:17:29.383Z,12.87
2018-12-05T16:19:58.311Z,13.77
2018-12-05T16:22:27.261Z,12.80
2018-12-05T16:24:56.204Z,12.37
2018-12-05T16:27:25.170Z,12.20
2018-12-05T16:29:54.104Z,13.03
2018-12-05T16:32:23.072Z,13.00
2018-12-05T16:34:52.109Z,12.97
2018-12-05T16:37:21.237Z,12.37
2018-12-05T16:39:50.138Z,11.73
2018-12-05T16:42:19.006Z,12.27
2018-12-05T16:44:47.996Z,12.90
2018-12-05T16:47:16.842Z,12.90
2018-12-05T16:49:45.797Z,12.50
2018-12-05T16:52:14.833Z,11.67
2018-12-05T16:54:44.063Z,12.87
2018-12-05T16:57:12.916Z,12.47
2018-12-05T16:59:41.841Z,12.60
2018-12-05T17:02:10.801Z,12.37
2018-12-05T17:04:39.691Z,13.97
2018-12-05T17:07:08.612Z,13.37
2018-12-05T17:09:38.655Z,12.07
2018-12-05T17:12:07.537Z,13.27
2018-12-05T17:14:36.612Z,13.00
2018-12-05T17:17:05.605Z,13.47
2018-12-05T17:19:34.682Z,12.70
2018-12-05T17:22:03.595Z,13.03
2018-12-05T17:24:32.740Z,13.47
2018-12-05T17:27:01.762Z,12.60
2018-12-05T17:29:30.908Z,13.47
2018-12-05T17:31:59.885Z,13.57
2018-12-05T17:34:28.809Z,12.83
2018-12-05T17:36:57.768Z,12.70
2018-12-05T17:39:26.846Z,13.30
2018-12-05T17:41:55.711Z,13.67
2018-12-05T17:44:24.606Z,13.90
2018-12-05T17:46:53.593Z,13.30
2018-12-05T17:49:22.542Z,12.20
2018-12-05T17:51:51.499Z,13.70
2018-12-05T17:54:20.480Z,11.70
2018-12-05T17:56:49.496Z,12.73
2018-12-05T17:59:18.327Z,12.10
2018-12-05T18:01:47.250Z,13.10
2018-12-05T18:04:16.139Z,12.23
2018-12-05T18:06:45.865Z,12.43
2018-12-05T18:09:15.102Z,13.20
2018-12-05T18:11:44.063Z,12.87
2018-12-05T18:14:13.281Z,12.97
2018-12-05T18:16:42.245Z,13.90
2018-12-05T18:19:11.149Z,12.70
2018-12-05T18:21:40.065Z,12.20
2018-12-05T18:24:09.172Z,13.33
2018-12-05T18:26:38.098Z,13.00
2018-12-05T18:29:07.075Z,12.93
2018-12-05T18:31:36.269Z,12.00
2018-12-05T18:34:05.232Z,13.20
2018-12-05T18:36:34.409Z,12.60
2018-12-05T18:39:03.456Z,11.97
2018-12-05T18:41:32.357Z,13.73
2018-12-05T18:44:01.403Z,13.50
2018-12-05T18:46:30.250Z,13.40
2018-12-05T18:48:59.339Z,13.10
2018-12-05T18:51:28.385Z,11.97
2018-12-05T18:53:57.306Z,11.57
2018-12-05T18:56:26.213Z,12.27
2018-12-05T18:58:55.305Z,12.63
2018-12-05T19:01:24.206Z,12.90
2018-12-05T19:03:53.179Z,12.27
2018-12-05T19:06:22.053Z,12.10
2018-12-05T19:08:51.045Z,12.60
2018-12-05T19:11:20.036Z,13.23
2018-12-05T19:13:54.458Z,12.80
2018-12-05T19:16:23.262Z,12.53
2018-12-05T19:18:52.284Z,13.03
2018-12-05T19:21:21.311Z,13.23
2018-12-05T19:23:50.344Z,12.33
2018-12-05T19:26:19.275Z,12.43
2018-12-05T19:28:48.248Z,12.53
2018-12-05T19:31:19.499Z,11.50
2018-12-05T19:33:48.233Z,12.60
2018-12-05T19:36:17.110Z,11.10
2018-12-05T19:38:46.079Z,11.77
2018-12-05T19:41:15.049Z,12.10
2018-12-05T19:43:44.175Z,13.23
2018-12-05T19:46:13.298Z,14.90
2018-12-05T19:48:42.282Z,13.70
2018-12-05T19:51:11.320Z,12.70
2018-12-05T19:53:40.325Z,12.43
2018-12-05T19:56:09.325Z,14.87
2018-12-05T19:58:38.368Z,13.53
2018-12-05T20:01:07.394Z,12.93
2018-12-05T20:03:36.326Z,14.97
2018-12-05T20:06:05.460Z,15.10
2018-12-05T20:08:34.529Z,14.30
2018-12-05T20:11:03.467Z,14.83
2018-12-05T20:13:34.934Z,12.80
2018-12-05T20:16:04.966Z,14.33
2018-12-05T20:18:33.958Z,13.50
2018-12-05T20:21:02.966Z,14.57
2018-12-05T20:23:32.585Z,14.13
2018-12-05T20:26:01.684Z,11.97
2018-12-05T20:28:30.696Z,13.00
2018-12-05T20:30:59.805Z,12.43
2018-12-05T20:33:28.908Z,12.17
2018-12-05T20:35:57.887Z,11.67
2018-12-05T20:38:26.903Z,12.97
2018-12-05T20:40:55.905Z,12.80
2018-12-05T20:43:25.312Z,13.50
2018-12-05T20:45:54.248Z,14.47
2018-12-05T20:48:23.203Z,12.27
2018-12-05T20:50:52.198Z,14.07
2018-12-05T20:53:21.286Z,14.17
2018-12-05T20:55:50.283Z,14.50
2018-12-05T20:58:19.378Z,13.27
2018-12-05T21:00:48.470Z,12.07
2018-12-05T21:03:17.584Z,14.40
2018-12-05T21:05:46.565Z,14.63
2018-12-05T21:08:16.569Z,15.77
2018-12-05T21:10:45.521Z,13.70
2018-12-05T21:13:14.481Z,12.80
2018-12-05T21:15:43.446Z,12.20
2018-12-05T21:18:12.455Z,13.37
2018-12-05T21:20:41.487Z,12.70
2018-12-05T21:23:10.572Z,12.90
2018-12-05T21:25:39.593Z,11.80
2018-12-05T21:28:08.618Z,12.57
2018-12-05T21:30:38.026Z,12.97
2018-12-05T21:33:06.877Z,11.93
2018-12-05T21:35:35.810Z,12.83
2018-12-05T21:38:04.796Z,12.67
2018-12-05T21:40:33.742Z,12.93
2018-12-05T21:43:02.691Z,12.37
2018-12-05T21:45:31.995Z,15.30
2018-12-05T21:48:00.919Z,12.50
2018-12-05T21:50:30.110Z,10.93
2018-12-05T21:53:05.586Z,11.43
2018-12-05T21:55:34.757Z,13.03
2018-12-05T21:58:03.872Z,12.87
2018-12-05T22:00:32.771Z,12.10
2018-12-05T22:03:01.711Z,14.13
2018-12-05T22:05:30.783Z,12.83
2018-12-05T22:07:59.804Z,16.62
2018-12-05T22:10:28.921Z,12.60
2018-12-05T22:12:57.917Z,12.30
2018-12-05T22:15:27.032Z,14.37
2018-12-05T22:17:56.055Z,11.80
2018-12-05T22:20:26.628Z,12.20
2018-12-05T22:22:55.598Z,13.83
2018-12-05T22:25:24.594Z,16.00
2018-12-05T22:27:53.830Z,13.50
2018-12-05T22:30:22.811Z,12.43
2018-12-05T22:32:51.692Z,12.23
2018-12-05T22:35:20.887Z,13.20
2018-12-05T22:37:49.825Z,13.13
2018-12-05T22:40:18.838Z,11.97
2018-12-05T22:42:47.906Z,12.57
2018-12-05T22:45:17.192Z,12.63
2018-12-05T22:47:46.112Z,12.77
2018-12-05T22:50:15.206Z,11.77
2018-12-05T22:52:50.636Z,11.70
2018-12-05T22:55:19.701Z,12.00
2018-12-05T22:57:48.669Z,12.13
2018-12-05T23:00:22.208Z,12.67
2018-12-05T23:02:53.143Z,11.63
2018-12-05T23:05:22.328Z,11.13
2018-12-05T23:07:51.331Z,12.03
2018-12-05T23:10:20.257Z,11.97
2018-12-05T23:12:49.277Z,11.93
2018-12-05T23:15:18.259Z,11.67
2018-12-05T23:17:47.255Z,11.50
2018-12-05T23:20:16.089Z,10.80
2018-12-05T23:22:45.170Z,11.27
2018-12-05T23:25:14.033Z,12.33
2018-12-05T23:27:49.786Z,11.63
2018-12-05T23:30:21.051Z,11.97
2018-12-05T23:32:54.795Z,12.67
2018-12-05T23:35:24.324Z,11.10
2018-12-05T23:37:54.452Z,11.50
2018-12-05T23:40:24.207Z,11.03
2018-12-05T23:42:54.194Z,11.57
2018-12-05T23:45:23.569Z,11.27
2018-12-05T23:47:52.562Z,11.37
2018-12-05T23:50:21.565Z,11.70
2018-12-05T23:52:50.459Z,11.30
2018-12-05T23:55:19.320Z,12.17
2018-12-05T23:57:48.245Z,11.77
